Kennedy Heights, Ohio
Current Conditions -  °F | °C
As of 1:53 AM on Saturday 25 Oct 2014 (Local Time) from KLUK Reporting Station
Haze Haze  
Wind Chill:   Ceiling: Unl
Heat Index:   Visibility: 4mi
Dew Point:   Wind: 0mph
Humidity: 96%   Direction: NA
Pressure: 30.05"   Gusts: NA
Location:  39.1805°N, 84.4198°W
Report Text: KLUK 250553Z AUTO 00000KT 4SM BR CLR 06/05 A3005 RMK AO2 SLP175 T00560050 10106 20056 58002
Loading
Personal Weather Stations






























Interactive Weather Map
Tropical Storm Tracking
New forecast layout! Learn more

10-Day Weather Forecast

Advertisements
Track Severe Weather on mobile